Flight Track Log - Related Links

Times and Time Zones

All times are in EDT time to prevent confusion due to time zone crossing. See the MTN8305 flight status page for this flight to view local times or setup timezone preferences in your user account.

Time Position Orientation Groundspeed Altitude Reporting Facility
EDT Latitude Longitude Course Direction KTS MPH feet Rate Location/Type
Tue 04:16:25 AM 40.7000 -74.1833 270° West 99 114 1,200  Level New York TRACON
Tue 04:17:25 AM 40.7000 -74.2167 270° West 104 120 2,300 1,100 Climbing New York TRACON
Tue 04:18:25 AM 40.6833 -74.2500 237° Southwest 109 125 3,400 850 Climbing New York TRACON
Tue 04:19:25 AM 40.6833 -74.3000 270° West 129 148 4,000 300 Climbing New York TRACON
Tue 04:20:25 AM 40.6667 -74.3500 246° West 157 181 4,000  Level New York TRACON
Tue 04:21:00 AM 40.6333 -74.3931 270° West  Level FlightAware Approximate
Tue 04:22:00 AM 40.6333 -74.4042 270° West  Level FlightAware Approximate
Tue 04:29:00 AM 40.6823 -74.7786 280° West  Level FlightAware Approximate
Tue 04:30:00 AM 40.6892 -74.8322 280° West  Level FlightAware Approximate
Tue 04:31:00 AM 40.6960 -74.8857 280° West  Level FlightAware Approximate
Tue 04:31:40 AM 40.5667 -74.9500 272° West 151 174 4,000  Level Philadelphia TRACON
Tue 04:32:00 AM 40.7008 -74.9411 273° West  Level FlightAware Approximate
Tue 04:32:46 AM 40.5333 -75.0000 229° Southwest 172 198 4,000  Level Philadelphia TRACON
Tue 04:33:00 AM 40.7026 -74.9953 273° West  Level FlightAware Approximate
Tue 04:33:46 AM 40.5000 -75.0500 229° Southwest 160 184 4,000  Level Philadelphia TRACON
Tue 04:34:00 AM 40.7044 -75.0496 272° West  Level FlightAware Approximate
Tue 04:34:46 AM 40.4667 -75.0833 217° Southwest 161 185 4,000  Level Philadelphia TRACON
Tue 04:35:00 AM 40.7061 -75.1038 272° West  Level FlightAware Approximate
Tue 04:35:46 AM 40.4333 -75.1167 217° Southwest 160 184 4,000  Level Philadelphia TRACON
Tue 04:36:00 AM 40.7079 -75.1581 272° West  Level FlightAware Approximate
Tue 04:36:46 AM 40.4000 -75.1500 217° Southwest 160 184 4,000  Level Philadelphia TRACON
Tue 04:37:46 AM 40.3667 -75.1833 217° Southwest 161 185 4,000  Level Philadelphia TRACON
Tue 04:38:46 AM 40.3333 -75.2333 229° Southwest 159 183 4,000  Level Philadelphia TRACON
Tue 04:39:46 AM 40.3000 -75.2667 217° Southwest 158 182 4,000  Level Philadelphia TRACON
Tue 04:40:46 AM 40.2667 -75.3000 217° Southwest 158 182 4,000  Level Philadelphia TRACON
Tue 04:41:46 AM 40.2333 -75.3333 217° Southwest 158 182 4,000  Level Philadelphia TRACON
Tue 04:42:46 AM 40.2000 -75.3667 217° Southwest 160 184 4,000  Level Philadelphia TRACON
Tue 04:43:46 AM 40.1667 -75.4167 229° Southwest 162 186 4,000  Level Philadelphia TRACON
Tue 04:44:46 AM 40.1333 -75.4500 217° Southwest 161 185 4,000  Level Philadelphia TRACON
Tue 04:45:46 AM 40.0833 -75.4833 207° Southwest 160 184 4,000  Level Philadelphia TRACON
Tue 04:46:46 AM 40.0500 -75.5167 217° Southwest 163 188 4,000  Level Philadelphia TRACON
Tue 04:47:46 AM 40.0167 -75.5500 217° Southwest 163 188 4,000  Level Philadelphia TRACON
Tue 04:48:46 AM 39.9833 -75.6000 229° Southwest 161 185 4,000  Level Philadelphia TRACON
Tue 04:49:47 AM 39.9500 -75.6333 217° Southwest 160 184 4,000  Level Philadelphia TRACON
Tue 04:50:47 AM 39.9167 -75.6667 217° Southwest 160 184 4,000  Level Philadelphia TRACON
Tue 04:51:47 AM 39.8833 -75.7167 229° Southwest 159 183 4,000  Level Philadelphia TRACON
Tue 04:52:47 AM 39.8667 -75.7500 237° Southwest 158 182 4,000 34 Level Philadelphia TRACON
Tue 04:54:00 AM 39.8360 -75.8077 235° Southwest  Level FlightAware Approximate
Tue 04:54:46 AM 39.8167 -75.8500 235° Southwest 156 180 4,100  Level Potomac TRACON
Tue 04:55:46 AM 39.7833 -75.8833 218° Southwest 158 182 4,100 -50 Level Potomac TRACON
Tue 04:56:46 AM 39.7667 -75.9333 247° West 153 176 4,000 -50 Descending Potomac TRACON
Tue 04:57:47 AM 39.7333 -75.9833 229° Southwest 161 185 4,000  Level Potomac TRACON
Tue 04:58:47 AM 39.7000 -76.0167 218° Southwest 157 181 4,000  Level Potomac TRACON
Tue 04:59:47 AM 39.6667 -76.0500 218° Southwest 155 178 4,000  Level Potomac TRACON
Tue 05:00:47 AM 39.6333 -76.1000 229° Southwest 154 177 4,000  Level Potomac TRACON
Tue 05:01:53 AM 39.6000 -76.1333 218° Southwest 155 178 4,000  Level Potomac TRACON
Tue 05:02:53 AM 39.5667 -76.1833 229° Southwest 158 182 4,000  Level Potomac TRACON
Tue 05:03:47 AM 39.5500 -76.2167 237° Southwest 158 182 4,000  Level Potomac TRACON
Tue 05:04:47 AM 39.5167 -76.2500 218° Southwest 156 180 4,000  Level Potomac TRACON
Tue 05:05:41 AM 39.4833 -76.2833 218° Southwest 158 182 4,000 -158 Level Potomac TRACON
Tue 05:06:41 AM 39.4500 -76.3333 229° Southwest 164 189 3,700 -350 Descending Potomac TRACON
Tue 05:07:41 AM 39.4167 -76.3667 218° Southwest 169 194 3,300 -350 Descending Potomac TRACON
Tue 05:08:41 AM 39.3833 -76.4000 218° Southwest 170 196 3,000 -150 Descending Potomac TRACON
Tue 05:09:41 AM 39.3500 -76.4500 229° Southwest 160 184 3,000  Level Potomac TRACON
Tue 05:10:41 AM 39.3167 -76.4833 218° Southwest 160 184 3,000  Level Potomac TRACON
Tue 05:11:41 AM 39.2833 -76.5167 218° Southwest 161 185 3,000 -200 Level Potomac TRACON
Tue 05:12:41 AM 39.2500 -76.5500 218° Southwest 167 192 2,600 -500 Descending Potomac TRACON
Tue 05:13:41 AM 39.2000 -76.6000 218° Southwest 173 199 2,000 -700 Descending Potomac TRACON
Tue 05:14:41 AM 39.1667 -76.6333 218° Southwest 163 188 1,200 -800 Descending Potomac TRACON
Tue 05:16:00 AM 39.1667 -76.6667 270° West  Level FlightAware Approximate
Tue 05:23:00 AM 39.1754 -76.6683 270° West  Level Estimated
Tue 05:24:00 AM 39.1754 -76.6683 270° West  Level Estimated
Tue 05:25:00 AM 39.1754 -76.6683 270° West  Level Estimated
Tue 05:26:00 AM 39.1754 -76.6683 270° West  Level Estimated

Login

Don't have an account? Register now (free) for customized features, flight alerts, and more!